Time;durP1;ratioP1;P1;durP2;ratioP2;P2;SDS_P1;SDS_P2;PMS_P1;PMS_P2;Temp;Humidity;BMP_temperature;BMP_pressure;BME280_temperature;BME280_humidity;BME280_pressure;Samples;Min_cycle;Max_cycle;Signal;HPM_P1;HPM_P2
2022/07/07 00:01:34;;;;;;;7.75;1.85;;;17.90;96.80;;;;;;5071550;28;20028;-73
2022/07/07 00:04:02;;;;;;;3.33;1.27;;;17.80;96.80;;;;;;5072175;28;20050;-73
2022/07/07 00:06:28;;;;;;;2.70;1.50;;;17.90;96.80;;;;;;5072634;28;20451;-74
2022/07/07 00:08:54;;;;;;;6.68;1.58;;;17.90;97.20;;;;;;5072591;28;20348;-74
2022/07/07 00:11:27;;;;;;;3.30;1.42;;;17.90;97.50;;;;;;5071444;28;20090;-74
2022/07/07 00:13:53;;;;;;;5.07;2.00;;;17.90;97.40;;;;;;5071280;28;20108;-74
2022/07/07 00:16:19;;;;;;;6.47;2.25;;;17.90;97.20;;;;;;5072754;28;20112;-74
2022/07/07 00:18:45;;;;;;;26.30;16.27;;;17.70;97.50;;;;;;5073224;28;20087;-74
2022/07/07 00:21:11;;;;;;;6.38;3.22;;;17.70;97.50;;;;;;5072180;28;20047;-74
2022/07/07 00:23:37;;;;;;;4.72;2.17;;;17.70;97.90;;;;;;5072354;28;20025;-74
2022/07/07 00:26:06;;;;;;;6.82;2.80;;;17.70;98.10;;;;;;5072235;28;20363;-75
2022/07/07 00:28:32;;;;;;;5.95;3.10;;;17.50;98.10;;;;;;5072064;28;20032;-75
2022/07/07 00:30:58;;;;;;;10.45;3.00;;;17.50;98.60;;;;;;5072992;28;20091;-75
2022/07/07 00:33:23;;;;;;;7.13;2.88;;;17.60;98.80;;;;;;5072107;28;20028;-74
2022/07/07 00:35:50;;;;;;;5.90;3.13;;;17.70;98.10;;;;;;5072072;28;20150;-74
2022/07/07 00:38:15;;;;;;;15.45;4.07;;;17.60;98.10;;;;;;5071924;28;20043;-73
2022/07/07 00:40:41;;;;;;;5.13;2.88;;;17.60;98.60;;;;;;5071657;28;20041;-75
2022/07/07 00:43:07;;;;;;;7.50;3.40;;;17.60;98.60;;;;;;5072253;28;20473;-74
2022/07/07 00:45:33;;;;;;;8.15;3.63;;;17.60;98.50;;;;;;5071800;28;20079;-74
2022/07/07 00:47:59;;;;;;;4.22;2.92;;;17.60;98.60;;;;;;5071995;28;20485;-74
2022/07/07 00:50:25;;;;;;;12.27;3.65;;;17.50;98.70;;;;;;5071731;28;20028;-74
2022/07/07 00:52:51;;;;;;;14.05;3.42;;;17.60;98.80;;;;;;5071695;28;20044;-74
2022/07/07 00:55:18;;;;;;;6.30;3.55;;;17.50;99.10;;;;;;5071541;28;20032;-74
2022/07/07 00:57:43;;;;;;;10.65;3.72;;;17.30;99.10;;;;;;5071138;28;20047;-74
2022/07/07 01:00:13;;;;;;;5.60;3.60;;;17.40;98.80;;;;;;5071747;28;20369;-73
2022/07/07 01:02:41;;;;;;;6.95;3.42;;;17.40;99.40;;;;;;5071456;28;20229;-76
2022/07/07 01:05:08;;;;;;;7.55;3.83;;;17.50;99.40;;;;;;5071503;28;20105;-74
2022/07/07 01:07:35;;;;;;;6.22;3.63;;;17.50;99.40;;;;;;5071387;28;20032;-76
2022/07/07 01:10:01;;;;;;;7.40;4.35;;;17.50;99.20;;;;;;5071286;28;20040;-75
2022/07/07 01:12:36;;;;;;;9.35;4.00;;;17.30;99.70;;;;;;5071236;28;20437;-74
2022/07/07 01:15:04;;;;;;;9.82;4.28;;;17.40;99.50;;;;;;5071283;28;20405;-74
2022/07/07 01:17:30;;;;;;;5.53;3.67;;;17.40;99.90;;;;;;5070114;28;20028;-74
2022/07/07 01:19:56;;;;;;;8.65;4.28;;;17.40;99.90;;;;;;5071288;28;20141;-76
2022/07/07 01:22:26;;;;;;;8.73;4.10;;;17.50;99.90;;;;;;5070941;28;20048;-75
2022/07/07 01:24:52;;;;;;;8.13;3.70;;;17.50;99.60;;;;;;5071620;28;20028;-74
2022/07/07 01:27:19;;;;;;;9.05;3.88;;;17.50;99.90;;;;;;5071017;28;20025;-74
2022/07/07 01:29:48;;;;;;;9.27;4.13;;;17.50;99.90;;;;;;5071067;28;20032;-74
2022/07/07 01:32:14;;;;;;;9.50;4.45;;;17.40;99.90;;;;;;5070871;28;20482;-75
2022/07/07 01:34:42;;;;;;;13.35;4.85;;;17.50;99.70;;;;;;5070789;28;20131;-74
2022/07/07 01:37:08;;;;;;;6.47;3.72;;;17.40;99.70;;;;;;5051664;28;20017;-75
2022/07/07 01:39:36;;;;;;;6.82;3.55;;;17.40;99.90;;;;;;5050834;28;20025;-74
2022/07/07 01:42:02;;;;;;;8.60;3.73;;;17.30;99.90;;;;;;5050717;28;20041;-75
2022/07/07 01:44:34;;;;;;;4.63;3.70;;;17.30;99.90;;;;;;5051014;28;20171;-74
2022/07/07 01:46:59;;;;;;;7.22;4.07;;;17.30;99.90;;;;;;5050960;28;20055;-74
2022/07/07 01:49:28;;;;;;;5.88;3.78;;;17.40;99.90;;;;;;5050762;28;20372;-74
2022/07/07 01:51:53;;;;;;;11.07;4.20;;;17.30;99.90;;;;;;5051045;28;20553;-75
2022/07/07 01:54:19;;;;;;;5.18;3.58;;;17.30;99.90;;;;;;5049232;28;20136;-74
2022/07/07 01:56:45;;;;;;;10.00;3.80;;;17.30;99.90;;;;;;5050511;28;20033;-75
2022/07/07 01:59:12;;;;;;;7.65;3.75;;;17.30;99.90;;;;;;5050503;28;20163;-74
2022/07/07 02:01:38;;;;;;;8.70;3.40;;;17.40;99.90;;;;;;5049527;28;20037;-76
2022/07/07 02:04:04;;;;;;;8.55;3.50;;;17.40;99.90;;;;;;5050894;28;20466;-74
2022/07/07 02:06:30;;;;;;;6.82;3.42;;;17.40;99.90;;;;;;5050431;28;20044;-74
2022/07/07 02:08:56;;;;;;;5.38;3.50;;;17.40;99.90;;;;;;5050132;28;20048;-74
2022/07/07 02:11:22;;;;;;;6.20;2.97;;;17.40;99.90;;;;;;5050292;28;20025;-74
2022/07/07 02:13:51;;;;;;;4.45;3.35;;;17.40;99.90;;;;;;5050365;28;20451;-75
2022/07/07 02:16:19;;;;;;;4.82;3.13;;;17.40;99.90;;;;;;5050254;28;20044;-74
2022/07/07 02:18:46;;;;;;;8.52;4.72;;;17.50;99.90;;;;;;5049599;28;20014;-75
2022/07/07 02:21:13;;;;;;;6.57;3.13;;;17.40;99.90;;;;;;5049499;28;20029;-74
2022/07/07 02:23:43;;;;;;;4.18;3.28;;;17.40;99.90;;;;;;5049888;28;20029;-75
2022/07/07 02:26:09;;;;;;;9.20;3.83;;;17.40;99.90;;;;;;5049953;28;20032;-76
2022/07/07 02:28:35;;;;;;;5.15;3.63;;;17.40;99.90;;;;;;5050045;28;20101;-75
2022/07/07 02:31:01;;;;;;;8.13;4.07;;;17.50;99.90;;;;;;5070810;28;20116;-75
2022/07/07 02:33:27;;;;;;;4.68;3.65;;;17.50;99.90;;;;;;5068799;28;20059;-76
2022/07/07 02:35:54;;;;;;;6.15;4.00;;;17.40;99.90;;;;;;5070039;28;20032;-73
2022/07/07 02:38:20;;;;;;;4.60;3.72;;;17.40;99.90;;;;;;5069996;28;20032;-74
2022/07/07 02:40:46;;;;;;;6.13;4.25;;;17.40;99.90;;;;;;5070063;28;20098;-73
2022/07/07 02:43:15;;;;;;;7.20;3.67;;;17.40;99.90;;;;;;5070494;28;20029;-75
2022/07/07 02:45:44;;;;;;;9.45;4.40;;;17.40;99.90;;;;;;5070833;28;20109;-75
2022/07/07 02:48:12;;;;;;;6.43;4.10;;;17.40;99.90;;;;;;5070178;28;20021;-74
2022/07/07 02:50:38;;;;;;;5.93;4.75;;;17.50;99.90;;;;;;5070024;28;20474;-74
2022/07/07 02:53:05;;;;;;;10.45;5.30;;;17.40;99.90;;;;;;5069893;28;20059;-74
2022/07/07 02:55:31;;;;;;;7.68;4.60;;;17.50;99.90;;;;;;5069789;28;20058;-74
2022/07/07 02:58:00;;;;;;;9.25;4.85;;;17.50;99.90;;;;;;5070257;28;20025;-75
2022/07/07 03:00:27;;;;;;;9.98;5.20;;;17.50;99.90;;;;;;5069926;28;20029;-74
2022/07/07 03:02:54;;;;;;;6.28;4.82;;;17.50;99.90;;;;;;5069834;28;20071;-75
2022/07/07 03:05:20;;;;;;;8.45;5.75;;;17.60;99.90;;;;;;5068668;28;20458;-75
2022/07/07 03:07:45;;;;;;;10.18;5.28;;;17.60;99.90;;;;;;5068721;28;20037;-74
2022/07/07 03:10:11;;;;;;;9.55;6.00;;;17.60;99.90;;;;;;5069660;28;20047;-75
2022/07/07 03:12:37;;;;;;;8.98;6.13;;;17.50;99.90;;;;;;5070451;28;20602;-73
2022/07/07 03:15:03;;;;;;;8.88;6.35;;;17.50;99.90;;;;;;5068867;28;20024;-75
2022/07/07 03:17:29;;;;;;;9.23;6.55;;;17.50;99.90;;;;;;5069813;28;20036;-75
2022/07/07 03:19:54;;;;;;;10.27;6.30;;;17.50;99.90;;;;;;5069939;28;20025;-74
2022/07/07 03:22:20;;;;;;;8.20;5.93;;;17.60;99.90;;;;;;5069583;28;20020;-75
2022/07/07 03:24:46;;;;;;;12.57;5.80;;;17.50;99.90;;;;;;5068903;28;20406;-75
2022/07/07 03:27:11;;;;;;;7.95;6.22;;;17.50;99.90;;;;;;5069947;28;20531;-75
2022/07/07 03:29:37;;;;;;;13.70;6.32;;;17.50;99.90;;;;;;5069759;28;20029;-75
2022/07/07 03:32:04;;;;;;;10.65;6.30;;;17.50;99.90;;;;;;5069633;28;20450;-75
2022/07/07 03:34:29;;;;;;;10.23;6.35;;;17.50;99.90;;;;;;5072881;28;20036;-76
2022/07/07 03:36:55;;;;;;;12.80;6.40;;;17.60;99.90;;;;;;5073598;28;20095;-76
2022/07/07 03:39:21;;;;;;;10.32;5.40;;;17.50;99.90;;;;;;5073213;28;20106;-75
2022/07/07 03:41:47;;;;;;;9.82;6.63;;;17.50;99.90;;;;;;5071960;28;20036;-76
2022/07/07 03:44:12;;;;;;;8.65;6.05;;;17.50;99.90;;;;;;5073330;28;20033;-75
2022/07/07 03:46:38;;;;;;;10.98;6.00;;;17.50;99.90;;;;;;5073093;28;20509;-75
2022/07/07 03:49:03;;;;;;;12.60;6.40;;;17.50;99.90;;;;;;5073487;28;20460;-76
2022/07/07 03:51:29;;;;;;;15.73;6.70;;;17.60;99.90;;;;;;5073026;28;20095;-75
2022/07/07 03:53:55;;;;;;;10.35;5.53;;;17.60;99.90;;;;;;5072993;28;20103;-75
2022/07/07 03:56:21;;;;;;;11.43;6.55;;;17.60;99.90;;;;;;5073106;28;20085;-76
2022/07/07 03:58:47;;;;;;;7.40;5.63;;;17.60;99.90;;;;;;5071575;28;20037;-75
2022/07/07 04:01:12;;;;;;;9.35;6.40;;;17.60;99.90;;;;;;5071968;28;20078;-76
2022/07/07 04:03:38;;;;;;;13.68;6.47;;;17.60;99.90;;;;;;5073230;28;20016;-75
2022/07/07 04:06:07;;;;;;;9.38;6.50;;;17.60;99.90;;;;;;5072664;28;20065;-76
2022/07/07 04:08:33;;;;;;;9.80;6.15;;;17.60;99.90;;;;;;5072522;28;20024;-76
2022/07/07 04:10:58;;;;;;;9.88;6.32;;;17.60;99.90;;;;;;5072798;28;20035;-75
2022/07/07 04:13:26;;;;;;;13.70;7.10;;;17.60;99.90;;;;;;5071401;28;20025;-75
2022/07/07 04:15:52;;;;;;;10.40;6.70;;;17.60;99.90;;;;;;5073019;28;20315;-76
2022/07/07 04:18:18;;;;;;;12.82;6.65;;;17.60;99.90;;;;;;5072545;28;20024;-75
2022/07/07 04:20:44;;;;;;;12.40;6.65;;;17.70;99.90;;;;;;5072400;28;20050;-76
2022/07/07 04:23:09;;;;;;;11.75;7.00;;;17.70;99.90;;;;;;5072514;28;20035;-75
2022/07/07 04:25:35;;;;;;;10.68;7.32;;;17.70;99.90;;;;;;5072459;28;20039;-74
2022/07/07 04:28:01;;;;;;;12.70;7.20;;;17.70;99.90;;;;;;5071787;28;20028;-75
2022/07/07 04:30:26;;;;;;;11.75;7.22;;;17.70;99.90;;;;;;5072379;28;20308;-76
2022/07/07 04:32:52;;;;;;;7.93;6.82;;;17.70;99.90;;;;;;5071248;28;20479;-74
2022/07/07 04:35:18;;;;;;;8.48;6.03;;;17.70;99.90;;;;;;5072190;28;20103;-75
2022/07/07 04:37:43;;;;;;;9.27;5.90;;;17.70;99.90;;;;;;5072101;28;20039;-75
2022/07/07 04:40:09;;;;;;;11.38;6.88;;;17.70;99.90;;;;;;5071909;28;20021;-74
2022/07/07 04:42:35;;;;;;;7.63;5.38;;;17.60;99.90;;;;;;5072268;28;20033;-73
2022/07/07 04:45:01;;;;;;;10.00;5.45;;;17.60;99.90;;;;;;5071160;28;20056;-75
2022/07/07 04:47:27;;;;;;;8.15;5.60;;;17.60;99.90;;;;;;5072176;28;20032;-75
2022/07/07 04:49:53;;;;;;;7.38;5.68;;;17.60;99.90;;;;;;5072120;28;20458;-76
2022/07/07 04:52:18;;;;;;;8.65;4.78;;;17.60;99.90;;;;;;5072189;28;20031;-76
2022/07/07 04:54:44;;;;;;;9.50;5.00;;;17.60;99.90;;;;;;5072513;28;20374;-76
2022/07/07 04:57:10;;;;;;;6.97;4.93;;;17.60;99.90;;;;;;5071907;28;20116;-74
2022/07/07 04:59:36;;;;;;;5.75;4.57;;;17.60;99.90;;;;;;5072065;28;20047;-74
2022/07/07 05:02:02;;;;;;;5.32;4.03;;;17.60;99.90;;;;;;5071742;28;20044;-74
2022/07/07 05:04:27;;;;;;;7.80;4.25;;;17.60;99.90;;;;;;5070485;28;20032;-73
2022/07/07 05:06:53;;;;;;;5.75;4.15;;;17.60;99.90;;;;;;5071965;28;20346;-75
2022/07/07 05:09:19;;;;;;;7.63;4.22;;;17.70;99.90;;;;;;5071822;28;20044;-75
2022/07/07 05:11:45;;;;;;;5.80;4.13;;;17.70;99.90;;;;;;5070582;28;20024;-74
2022/07/07 05:14:10;;;;;;;5.88;4.00;;;17.70;99.90;;;;;;5071372;28;20466;-73
2022/07/07 05:16:36;;;;;;;5.45;3.40;;;17.70;99.90;;;;;;5071428;28;20040;-73
2022/07/07 05:19:02;;;;;;;6.10;3.45;;;17.70;99.90;;;;;;5070799;28;20034;-75
2022/07/07 05:21:28;;;;;;;6.60;3.92;;;17.70;99.90;;;;;;5071304;28;20033;-74
2022/07/07 05:23:53;;;;;;;8.98;3.88;;;17.80;99.90;;;;;;5071148;28;20028;-74
2022/07/07 05:26:19;;;;;;;5.45;3.20;;;17.80;99.90;;;;;;5071121;28;20032;-73
2022/07/07 05:28:45;;;;;;;4.90;3.60;;;17.80;99.90;;;;;;5071452;28;20239;-76
2022/07/07 05:31:12;;;;;;;4.45;3.47;;;17.80;99.90;;;;;;5070234;28;20133;-75
2022/07/07 05:33:39;;;;;;;5.85;3.50;;;17.90;99.90;;;;;;5071709;28;20105;-75
2022/07/07 05:36:06;;;;;;;4.38;3.03;;;17.80;99.90;;;;;;5071145;28;20056;-78
2022/07/07 05:38:33;;;;;;;5.25;3.40;;;17.90;99.90;;;;;;5070927;28;20040;-74
2022/07/07 05:40:59;;;;;;;5.22;2.72;;;17.90;99.90;;;;;;5069668;28;20086;-75
2022/07/07 05:43:27;;;;;;;5.38;3.42;;;17.90;99.90;;;;;;5069966;28;20331;-76
2022/07/07 05:45:54;;;;;;;3.67;2.83;;;17.90;99.90;;;;;;5069975;28;20468;-73
2022/07/07 05:48:20;;;;;;;4.38;2.60;;;17.90;99.90;;;;;;5070889;28;20434;-75
2022/07/07 05:50:46;;;;;;;5.28;2.80;;;17.90;99.90;;;;;;5070953;28;20040;-75
2022/07/07 05:53:11;;;;;;;8.68;3.20;;;17.90;99.90;;;;;;5070933;28;20049;-75
2022/07/07 05:55:37;;;;;;;3.75;2.88;;;17.90;99.90;;;;;;5070938;28;20037;-76
2022/07/07 05:58:03;;;;;;;5.97;2.97;;;17.90;99.90;;;;;;5070008;28;20090;-75
2022/07/07 06:00:29;;;;;;;4.07;3.00;;;17.90;99.90;;;;;;5070790;28;20111;-74
2022/07/07 06:02:55;;;;;;;5.82;3.47;;;17.90;99.90;;;;;;5070846;28;20465;-74
2022/07/07 06:05:21;;;;;;;5.68;3.65;;;17.90;99.90;;;;;;5070414;28;20049;-74
2022/07/07 06:07:47;;;;;;;7.80;3.90;;;17.90;99.90;;;;;;5070262;28;20434;-75
2022/07/07 06:10:14;;;;;;;8.05;3.97;;;17.90;99.90;;;;;;5070072;28;20048;-72
2022/07/07 06:12:41;;;;;;;6.25;4.38;;;17.80;99.90;;;;;;5069254;28;20346;-73
2022/07/07 06:15:07;;;;;;;8.02;4.25;;;17.90;99.90;;;;;;5070360;28;20370;-71
2022/07/07 06:17:33;;;;;;;6.97;4.38;;;17.80;99.90;;;;;;5070454;28;20055;-71
2022/07/07 06:19:59;;;;;;;9.43;4.38;;;17.80;99.90;;;;;;5068995;28;20395;-71
2022/07/07 06:22:26;;;;;;;5.85;4.70;;;17.80;99.90;;;;;;5068921;28;20233;-71
2022/07/07 06:24:52;;;;;;;5.40;4.28;;;17.70;99.90;;;;;;5070889;28;20025;-72
2022/07/07 06:27:18;;;;;;;8.05;4.85;;;17.80;99.90;;;;;;5069080;28;20029;-73
2022/07/07 06:29:45;;;;;;;7.20;4.63;;;17.90;99.90;;;;;;5070149;28;20024;-72
2022/07/07 06:32:10;;;;;;;6.35;4.50;;;17.90;99.90;;;;;;5069012;28;20366;-72
2022/07/07 06:34:36;;;;;;;5.82;4.00;;;18.00;99.90;;;;;;5063611;28;20024;-72
2022/07/07 06:37:02;;;;;;;11.85;3.80;;;17.90;99.90;;;;;;5082745;28;20085;-73
2022/07/07 06:39:29;;;;;;;4.18;3.65;;;18.00;99.90;;;;;;5069771;28;20170;-71
2022/07/07 06:41:54;;;;;;;5.47;3.97;;;18.10;99.90;;;;;;5070062;28;20036;-71
2022/07/07 06:44:21;;;;;;;5.47;3.83;;;18.20;99.90;;;;;;5070085;28;20028;-71
2022/07/07 06:46:46;;;;;;;7.00;4.47;;;18.20;99.90;;;;;;5069783;28;20056;-71
2022/07/07 06:49:12;;;;;;;9.73;4.50;;;18.30;99.90;;;;;;5069015;28;20278;-73
2022/07/07 06:51:38;;;;;;;11.52;7.70;;;18.30;99.90;;;;;;5070798;28;20031;-73
2022/07/07 06:54:04;;;;;;;5.13;3.83;;;18.30;99.90;;;;;;5069073;28;20060;-72
2022/07/07 06:56:30;;;;;;;10.00;3.70;;;18.20;99.90;;;;;;5070100;28;20044;-73
2022/07/07 06:58:56;;;;;;;5.32;4.00;;;18.20;99.90;;;;;;5069850;28;20033;-72
2022/07/07 07:01:21;;;;;;;7.97;3.88;;;18.40;99.90;;;;;;5069752;28;20090;-75
2022/07/07 07:03:47;;;;;;;6.10;4.10;;;18.20;99.90;;;;;;5070447;28;20025;-74
2022/07/07 07:06:14;;;;;;;7.70;3.83;;;18.30;99.90;;;;;;5068732;28;20052;-73
2022/07/07 07:08:40;;;;;;;5.35;3.22;;;18.30;99.90;;;;;;5071659;28;20112;-72
2022/07/07 07:11:05;;;;;;;4.93;3.35;;;18.20;99.90;;;;;;5072565;28;20404;-74
2022/07/07 07:13:32;;;;;;;7.20;3.33;;;18.30;99.90;;;;;;5073656;28;20037;-74
2022/07/07 07:15:58;;;;;;;4.75;3.22;;;18.40;99.90;;;;;;5074029;28;20029;-73
2022/07/07 07:18:24;;;;;;;8.35;4.05;;;18.30;99.90;;;;;;5073749;28;20100;-73
2022/07/07 07:20:49;;;;;;;5.85;2.97;;;18.30;99.90;;;;;;5073433;28;20496;-74
2022/07/07 07:23:15;;;;;;;5.57;2.92;;;18.40;99.90;;;;;;5073258;28;20028;-72
2022/07/07 07:25:40;;;;;;;6.57;3.65;;;18.50;99.90;;;;;;5072048;28;20024;-73
2022/07/07 07:28:06;;;;;;;5.32;3.25;;;18.40;99.90;;;;;;5073929;28;20028;-73
2022/07/07 07:30:32;;;;;;;6.60;3.05;;;18.30;99.90;;;;;;5073419;28;20366;-73
2022/07/07 07:32:58;;;;;;;6.40;3.75;;;18.30;99.90;;;;;;5073622;28;20028;-72
2022/07/07 07:35:23;;;;;;;4.28;3.47;;;18.30;99.90;;;;;;5073153;28;20075;-73
2022/07/07 07:37:49;;;;;;;3.80;3.20;;;18.40;99.90;;;;;;5073048;28;20024;-72
2022/07/07 07:40:15;;;;;;;3.45;2.58;;;18.30;99.90;;;;;;5073274;28;20426;-73
2022/07/07 07:42:41;;;;;;;7.32;3.25;;;18.20;99.90;;;;;;5073436;28;20021;-73
2022/07/07 07:45:10;;;;;;;4.25;3.22;;;18.20;99.90;;;;;;5073588;28;20033;-74
2022/07/07 07:47:41;;;;;;;5.57;2.83;;;18.20;99.90;;;;;;5073045;28;20031;-70
2022/07/07 07:50:11;;;;;;;5.80;3.28;;;18.30;99.90;;;;;;5072787;28;20512;-72
2022/07/07 07:52:38;;;;;;;4.85;3.20;;;18.40;99.90;;;;;;5072667;28;20039;-73
2022/07/07 07:55:06;;;;;;;4.97;3.00;;;18.60;99.90;;;;;;5073040;28;20124;-71
2022/07/07 07:57:31;;;;;;;4.05;2.78;;;18.70;99.90;;;;;;5072741;28;20494;-69
2022/07/07 07:59:57;;;;;;;3.55;2.60;;;18.80;99.90;;;;;;5072533;28;20082;-68
2022/07/07 08:02:23;;;;;;;4.50;2.30;;;18.70;99.90;;;;;;5072838;28;20044;-71
2022/07/07 08:04:48;;;;;;;5.97;2.50;;;18.80;99.90;;;;;;5073325;28;20454;-70
2022/07/07 08:07:14;;;;;;;2.53;2.28;;;18.80;99.90;;;;;;5072806;28;20024;-70
2022/07/07 08:09:40;;;;;;;3.75;2.53;;;18.90;99.90;;;;;;5073115;28;20103;-69
2022/07/07 08:12:06;;;;;;;2.88;2.22;;;19.10;99.90;;;;;;5072462;28;20029;-70
2022/07/07 08:14:32;;;;;;;3.28;1.58;;;19.30;99.90;;;;;;5072316;28;20032;-70
2022/07/07 08:16:57;;;;;;;4.50;2.10;;;19.30;99.90;;;;;;5072746;28;20032;-70
2022/07/07 08:19:23;;;;;;;2.03;1.35;;;19.30;99.90;;;;;;5071219;28;20363;-70
2022/07/07 08:21:50;;;;;;;2.70;1.55;;;19.40;99.90;;;;;;5072433;28;20082;-70
2022/07/07 08:24:16;;;;;;;2.22;1.73;;;19.40;99.90;;;;;;5072247;28;20111;-71
2022/07/07 08:26:42;;;;;;;4.00;1.50;;;19.40;99.90;;;;;;5072253;28;20120;-68
2022/07/07 08:29:08;;;;;;;2.15;1.40;;;19.30;99.90;;;;;;5072215;28;20028;-70
2022/07/07 08:31:34;;;;;;;2.25;1.63;;;19.20;99.90;;;;;;5072204;28;20386;-70
2022/07/07 08:33:59;;;;;;;2.58;1.38;;;19.10;99.90;;;;;;5072343;28;20430;-70
2022/07/07 08:36:25;;;;;;;6.50;1.65;;;19.10;99.90;;;;;;5072313;28;20120;-70
2022/07/07 08:38:51;;;;;;;3.47;1.90;;;19.10;99.90;;;;;;5072433;28;20040;-70
2022/07/07 08:41:17;;;;;;;9.32;1.73;;;19.10;99.90;;;;;;5072835;28;20464;-70
2022/07/07 08:43:43;;;;;;;2.90;1.40;;;19.10;99.90;;;;;;5073133;28;20431;-71
2022/07/07 08:46:11;;;;;;;3.08;1.30;;;19.10;99.90;;;;;;5072560;28;20021;-71
2022/07/07 08:48:37;;;;;;;3.08;0.85;;;19.30;99.90;;;;;;5071859;28;20047;-70
2022/07/07 08:51:07;;;;;;;3.17;1.38;;;19.30;99.90;;;;;;5071723;28;20024;-70
2022/07/07 08:53:35;;;;;;;9.63;6.93;;;19.20;99.90;;;;;;5071776;28;20073;-71
2022/07/07 08:56:07;;;;;;;2.70;1.40;;;19.30;99.90;;;;;;5071502;28;20586;-71
2022/07/07 08:58:35;;;;;;;1.30;0.63;;;19.30;99.90;;;;;;5071719;28;20028;-72
2022/07/07 09:01:05;;;;;;;2.33;0.90;;;19.10;99.90;;;;;;5071886;28;20028;-71
2022/07/07 09:03:31;;;;;;;1.17;0.60;;;19.00;99.90;;;;;;5071641;28;20083;-71
2022/07/07 09:05:57;;;;;;;3.97;1.13;;;19.00;99.90;;;;;;5072099;28;20067;-71
2022/07/07 09:08:24;;;;;;;2.28;0.98;;;19.10;99.90;;;;;;5071104;28;20024;-71
2022/07/07 09:10:50;;;;;;;4.73;1.30;;;18.90;99.90;;;;;;5077500;28;20040;-70
2022/07/07 09:13:28;;;;;;;3.05;0.80;;;19.10;99.90;;;;;;5071254;28;20109;-72
2022/07/07 09:15:56;;;;;;;2.17;1.20;;;18.90;99.90;;;;;;5071872;28;20346;-69
2022/07/07 09:18:38;;;;;;;1.30;1.00;;;18.90;99.90;;;;;;5070142;28;20488;-70
2022/07/07 09:21:25;;;;;;;3.08;1.35;;;19.00;99.90;;;;;;5071013;28;20028;-69
2022/07/07 09:23:53;;;;;;;6.40;3.80;;;19.10;99.90;;;;;;5070381;28;20505;-70
2022/07/07 09:26:41;;;;;;;2.63;1.70;;;19.10;99.90;;;;;;5070862;28;20538;-70
2022/07/07 09:29:09;;;;;;;3.30;1.85;;;19.20;99.90;;;;;;5070939;28;20039;-70
2022/07/07 09:31:57;;;;;;;3.13;1.65;;;19.20;99.90;;;;;;5070617;28;20028;-69
2022/07/07 09:34:29;;;;;;;6.57;1.67;;;19.40;99.90;;;;;;5070671;28;20108;-71
2022/07/07 09:40:00;;;;;;;4.28;1.67;;;19.80;99.90;;;;;;4969864;28;20047;-69
2022/07/07 09:42:28;;;;;;;2.13;1.23;;;20.00;99.90;;;;;;4969922;28;20034;-69
2022/07/07 09:44:58;;;;;;;;;;;19.90;99.90;;;;;;5018266;28;20051;-70
2022/07/07 09:47:24;;;;;;;1.67;1.20;;;20.00;99.90;;;;;;5070598;28;19908;-70
2022/07/07 09:50:06;;;;;;;4.45;2.25;;;19.90;99.90;;;;;;5070759;28;20040;-70
2022/07/07 09:52:35;;;;;;;3.30;2.17;;;19.90;99.90;;;;;;5070430;28;20089;-69
2022/07/07 09:55:01;;;;;;;;;;;19.70;99.90;;;;;;5071190;28;20489;-70
2022/07/07 09:57:27;;;;;;;2.05;1.70;;;19.60;99.90;;;;;;5070461;28;20037;-70
2022/07/07 09:59:53;;;;;;;4.82;1.60;;;19.50;99.90;;;;;;5069594;28;20033;-70
2022/07/07 10:02:21;;;;;;;2.75;1.60;;;19.40;99.90;;;;;;5069450;28;20127;-69
2022/07/07 10:04:52;;;;;;;2.15;1.73;;;19.40;99.90;;;;;;5070479;28;20050;-71
2022/07/07 10:07:21;;;;;;;10.48;4.28;;;19.40;99.90;;;;;;5070603;28;20046;-71
2022/07/07 10:09:51;;;;;;;2.22;1.40;;;19.50;99.90;;;;;;5070715;28;20396;-71
2022/07/07 10:12:17;;;;;;;4.00;1.33;;;19.40;99.90;;;;;;5070492;28;20059;-72
2022/07/07 10:14:44;;;;;;;3.80;1.58;;;19.40;99.90;;;;;;5070329;28;20493;-72
2022/07/07 10:17:12;;;;;;;2.28;1.02;;;19.40;99.90;;;;;;5070533;28;20432;-71
2022/07/07 10:19:38;;;;;;;1.85;0.93;;;19.40;99.90;;;;;;5070260;28;20025;-70
2022/07/07 10:22:04;;;;;;;2.50;1.08;;;19.40;99.90;;;;;;5070717;28;20117;-71
2022/07/07 10:24:35;;;;;;;4.05;1.17;;;19.50;99.90;;;;;;5070255;28;20083;-71
2022/07/07 10:27:03;;;;;;;2.50;1.70;;;19.50;99.90;;;;;;5070165;28;20024;-70
2022/07/07 10:29:38;;;;;;;1.15;0.77;;;19.50;99.90;;;;;;5069038;28;20036;-71
2022/07/07 10:32:05;;;;;;;3.33;1.27;;;19.50;99.90;;;;;;5070020;28;20036;-69
2022/07/07 10:34:33;;;;;;;1.75;0.98;;;19.40;99.90;;;;;;5069859;28;20047;-74
2022/07/07 10:37:03;;;;;;;;;;;19.30;99.90;;;;;;5071024;28;20024;-72
2022/07/07 10:40:02;;;;;;;1.67;1.10;;;19.20;99.90;;;;;;5069857;28;19997;-70
2022/07/07 10:42:28;;;;;;;3.38;1.55;;;19.10;99.90;;;;;;5052857;28;20105;-71
2022/07/07 10:44:54;;;;;;;3.95;1.15;;;19.10;99.90;;;;;;5074303;28;20021;-71
2022/07/07 10:47:20;;;;;;;5.22;1.38;;;19.10;99.90;;;;;;5072961;28;20091;-71
2022/07/07 10:49:51;;;;;;;5.70;1.27;;;19.00;99.90;;;;;;5074091;28;20021;-71
2022/07/07 10:52:19;;;;;;;2.92;1.02;;;19.10;99.90;;;;;;5073865;28;20027;-73
2022/07/07 10:54:59;;;;;;;2.00;1.45;;;19.20;99.90;;;;;;5074101;28;20048;-73
2022/07/07 10:57:42;;;;;;;4.65;1.45;;;19.20;99.90;;;;;;5074247;28;20029;-71
2022/07/07 11:00:26;;;;;;;4.22;1.30;;;19.50;99.90;;;;;;5073969;28;20470;-71
2022/07/07 11:03:09;;;;;;;3.78;1.58;;;19.80;99.90;;;;;;5073922;28;20036;-70
2022/07/07 11:05:35;;;;;;;3.45;1.08;;;19.90;99.90;;;;;;5074041;28;20055;-71
2022/07/07 11:08:06;;;;;;;2.63;1.50;;;20.00;99.90;;;;;;5072910;28;20032;-71
2022/07/07 11:10:51;;;;;;;4.35;1.80;;;19.90;99.90;;;;;;5074195;28;20304;-71
2022/07/07 11:13:28;;;;;;;6.63;1.80;;;19.90;99.90;;;;;;5074131;28;20024;-71
2022/07/07 11:16:23;;;;;;;15.68;6.63;;;19.70;99.90;;;;;;5074557;28;20458;-70
2022/07/07 11:18:58;;;;;;;6.05;1.60;;;19.80;99.90;;;;;;5073002;28;20362;-72
2022/07/07 11:21:34;;;;;;;6.25;1.60;;;19.80;99.90;;;;;;5074094;28;20028;-72
2022/07/07 11:24:02;;;;;;;5.90;1.88;;;20.00;99.90;;;;;;5073291;28;20102;-71
2022/07/07 11:26:28;;;;;;;8.07;1.75;;;19.80;99.90;;;;;;5073521;28;20024;-71
2022/07/07 11:28:56;;;;;;;5.93;1.90;;;20.00;99.90;;;;;;5072523;28;20120;-70
2022/07/07 11:31:23;;;;;;;7.68;2.20;;;20.00;99.90;;;;;;5073563;28;20046;-71
2022/07/07 11:33:54;;;;;;;10.75;2.08;;;20.00;99.90;;;;;;5072889;28;20035;-70
2022/07/07 11:36:23;;;;;;;7.32;1.95;;;20.10;99.90;;;;;;5073364;28;20029;-71
2022/07/07 11:38:52;;;;;;;6.60;1.83;;;19.90;99.90;;;;;;5071774;28;20047;-72
2022/07/07 11:41:18;;;;;;;6.93;1.80;;;19.80;99.90;;;;;;5073026;28;20346;-70
2022/07/07 11:43:53;;;;;;;9.02;1.98;;;19.90;99.90;;;;;;5072902;28;20116;-71
2022/07/07 11:46:25;;;;;;;8.85;2.13;;;19.90;99.90;;;;;;5072909;28;20056;-70
2022/07/07 11:48:51;;;;;;;4.35;1.80;;;20.00;99.90;;;;;;5073329;28;20020;-71
2022/07/07 11:51:16;;;;;;;4.65;2.55;;;20.00;99.90;;;;;;5072821;28;20028;-70
2022/07/07 11:53:42;;;;;;;5.70;1.95;;;20.00;99.90;;;;;;5072326;28;20044;-70
2022/07/07 11:56:08;;;;;;;8.45;1.80;;;20.10;99.90;;;;;;5072778;28;20379;-72
2022/07/07 11:58:33;;;;;;;10.25;2.15;;;20.10;99.90;;;;;;5071629;28;20036;-69
2022/07/07 12:00:59;;;;;;;10.27;2.50;;;20.20;99.90;;;;;;5073145;28;20407;-70
2022/07/07 12:03:33;;;;;;;8.45;2.50;;;20.00;99.90;;;;;;5073385;28;20029;-71
2022/07/07 12:06:01;;;;;;;7.65;1.98;;;19.70;99.90;;;;;;5072843;28;20373;-69
2022/07/07 12:08:34;;;;;;;6.73;1.77;;;19.70;99.90;;;;;;5072608;28;20032;-71
2022/07/07 12:11:00;;;;;;;10.85;3.03;;;19.60;99.90;;;;;;5072698;28;20376;-70
2022/07/07 12:13:26;;;;;;;8.65;2.03;;;19.60;99.90;;;;;;5072654;28;20032;-71
2022/07/07 12:15:53;;;;;;;10.20;2.05;;;19.40;99.90;;;;;;5073318;28;20085;-72
2022/07/07 12:18:24;;;;;;;6.43;2.13;;;19.40;99.90;;;;;;5072319;28;20037;-70
2022/07/07 12:21:06;;;;;;;6.18;1.73;;;19.30;99.90;;;;;;5072382;28;20029;-69
2022/07/07 12:23:39;;;;;;;8.15;1.95;;;19.30;99.90;;;;;;5072802;28;20151;-70
2022/07/07 12:26:13;;;;;;;8.27;2.03;;;19.30;99.90;;;;;;5072764;28;20028;-70
2022/07/07 12:28:40;;;;;;;7.22;2.58;;;19.50;99.90;;;;;;5072287;28;20266;-70
2022/07/07 12:31:07;;;;;;;6.32;2.20;;;19.50;99.90;;;;;;5073634;28;20074;-70
2022/07/07 12:33:39;;;;;;;11.30;2.28;;;19.70;99.90;;;;;;5072362;28;20033;-71
2022/07/07 12:36:11;;;;;;;5.60;2.17;;;19.90;99.90;;;;;;5072758;28;20025;-70
2022/07/07 12:38:46;;;;;;;8.80;1.88;;;20.30;99.90;;;;;;5073117;28;20478;-70
2022/07/07 12:41:24;;;;;;;5.18;2.05;;;20.40;99.90;;;;;;5072775;28;20032;-70
2022/07/07 12:43:50;;;;;;;6.30;2.25;;;20.60;99.90;;;;;;5072442;28;20048;-69
2022/07/07 12:46:16;;;;;;;10.70;2.58;;;20.80;99.90;;;;;;5071906;28;20020;-69
2022/07/07 12:48:52;;;;;;;6.57;1.73;;;21.00;99.90;;;;;;5071060;28;20091;-69
2022/07/07 12:51:28;;;;;;;8.27;2.25;;;21.00;99.00;;;;;;5071805;28;20112;-70